Time;durP1;ratioP1;P1;durP2;ratioP2;P2;SDS_P1;SDS_P2;PMS_P1;PMS_P2;Temp;Humidity;BMP_temperature;BMP_pressure;BME280_temperature;BME280_humidity;BME280_pressure;Samples;Min_cycle;Max_cycle;Signal;HPM_P1;HPM_P2
2023/01/24 00:01:23;;;;;;;16.33;11.97;;;;;;;;;;5020306;28;20228;-52
2023/01/24 00:03:49;;;;;;;24.13;13.43;;;;;;;;;;5023405;28;20772;-54
2023/01/24 00:06:16;;;;;;;18.07;12.43;;;;;;;;;;5016236;28;20233;-55
2023/01/24 00:08:42;;;;;;;18.57;11.97;;;;;;;;;;5023589;28;20614;-51
2023/01/24 00:11:10;;;;;;;16.70;11.40;;;;;;;;;;5028889;28;20314;-52
2023/01/24 00:13:38;;;;;;;19.87;11.93;;;;;;;;;;5024163;28;20228;-55
2023/01/24 00:16:05;;;;;;;17.93;11.73;;;;;;;;;;5024394;28;20250;-51
2023/01/24 00:18:32;;;;;;;23.80;13.23;;;;;;;;;;5017438;28;20235;-52
2023/01/24 00:21:02;;;;;;;18.33;12.07;;;;;;;;;;5022693;28;20319;-52
2023/01/24 00:23:28;;;;;;;17.37;13.00;;;;;;;;;;5009180;28;20240;-54
2023/01/24 00:25:55;;;;;;;15.23;11.80;;;;;;;;;;5011153;28;20312;-54
2023/01/24 00:28:21;;;;;;;16.30;12.13;;;;;;;;;;5003603;28;20244;-53
2023/01/24 00:30:49;;;;;;;18.70;12.10;;;;;;;;;;5016432;28;20257;-52
2023/01/24 00:33:15;;;;;;;16.60;12.00;;;;;;;;;;5033411;28;20242;-53
2023/01/24 00:35:41;;;;;;;20.13;12.73;;;;;;;;;;5022971;28;20619;-53
2023/01/24 00:38:08;;;;;;;17.00;12.03;;;;;;;;;;5021181;28;20609;-53
2023/01/24 00:40:34;;;;;;;17.07;11.50;;;;;;;;;;5044263;28;20298;-52
2023/01/24 00:43:00;;;;;;;13.70;11.23;;;;;;;;;;5024351;28;20235;-53
2023/01/24 00:45:27;;;;;;;15.63;11.57;;;;;;;;;;5023672;28;20243;-53
2023/01/24 00:47:55;;;;;;;17.53;12.10;;;;;;;;;;5036712;28;20238;-52
2023/01/24 00:50:21;;;;;;;15.83;12.10;;;;;;;;;;5026651;28;20257;-53
2023/01/24 00:52:47;;;;;;;19.17;11.87;;;;;;;;;;5023113;28;20263;-54
2023/01/24 00:55:14;;;;;;;15.70;12.17;;;;;;;;;;5029416;28;20267;-52
2023/01/24 00:57:40;;;;;;;16.50;10.73;;;;;;;;;;5024806;28;20235;-53
2023/01/24 01:00:08;;;;;;;17.57;11.93;;;;;;;;;;5027836;28;20243;-53
2023/01/24 01:02:34;;;;;;;15.17;10.57;;;;;;;;;;5023363;28;20227;-52
2023/01/24 01:05:02;;;;;;;15.47;11.60;;;;;;;;;;5018378;28;20268;-52
2023/01/24 01:07:28;;;;;;;12.37;10.77;;;;;;;;;;5012939;28;20787;-52
2023/01/24 01:09:55;;;;;;;13.03;10.33;;;;;;;;;;5022591;28;20236;-52
2023/01/24 01:12:21;;;;;;;13.73;10.27;;;;;;;;;;5023711;28;20322;-52
2023/01/24 01:14:48;;;;;;;13.40;10.63;;;;;;;;;;5024361;28;20225;-52
2023/01/24 01:17:14;;;;;;;13.97;10.50;;;;;;;;;;5023301;28;20235;-52
2023/01/24 01:19:41;;;;;;;15.67;10.43;;;;;;;;;;5028408;28;20246;-54
2023/01/24 01:22:08;;;;;;;16.07;9.67;;;;;;;;;;5013605;28;20258;-53
2023/01/24 01:24:35;;;;;;;13.70;10.37;;;;;;;;;;5022135;28;20616;-52
2023/01/24 01:27:02;;;;;;;17.63;10.57;;;;;;;;;;5028297;28;20826;-52
2023/01/24 01:29:28;;;;;;;14.63;10.63;;;;;;;;;;5021525;28;20287;-53
2023/01/24 01:32:01;;;;;;;12.40;10.07;;;;;;;;;;5029270;28;20286;-54
2023/01/24 01:34:27;;;;;;;12.77;9.67;;;;;;;;;;5025812;28;21366;-54
2023/01/24 01:36:54;;;;;;;14.23;10.23;;;;;;;;;;5028158;28;20292;-54
2023/01/24 01:39:21;;;;;;;12.00;10.50;;;;;;;;;;5025280;28;20245;-53
2023/01/24 01:41:48;;;;;;;13.60;9.77;;;;;;;;;;5033948;28;20713;-54
2023/01/24 01:44:40;;;;;;;14.77;9.50;;;;;;;;;;5043313;28;20338;-53
2023/01/24 01:47:11;;;;;;;15.53;11.03;;;;;;;;;;5028749;28;20246;-53
2023/01/24 01:49:40;;;;;;;13.83;9.97;;;;;;;;;;5030165;28;20662;-53
2023/01/24 01:52:06;;;;;;;12.47;9.60;;;;;;;;;;5029279;28;20318;-52
2023/01/24 01:54:36;;;;;;;12.43;9.13;;;;;;;;;;5023631;28;20607;-51
2023/01/24 01:57:04;;;;;;;13.70;10.50;;;;;;;;;;5026849;28;20236;-53
2023/01/24 01:59:32;;;;;;;13.50;10.03;;;;;;;;;;5026103;28;20235;-53
2023/01/24 02:02:00;;;;;;;11.63;9.63;;;;;;;;;;5019354;28;20232;-52
2023/01/24 02:04:29;;;;;;;13.07;9.63;;;;;;;;;;5025073;28;20319;-51
2023/01/24 02:06:59;;;;;;;12.83;9.57;;;;;;;;;;5023995;28;20722;-52
2023/01/24 02:09:27;;;;;;;13.17;9.93;;;;;;;;;;5024720;28;20735;-54
2023/01/24 02:12:00;;;;;;;12.60;9.93;;;;;;;;;;5019250;28;20235;-55
2023/01/24 02:17:11;;;;;;;14.07;10.30;;;;;;;;;;5020732;28;20926;-51
2023/01/24 02:19:45;;;;;;;10.70;8.50;;;;;;;;;;5021222;28;20246;-53
2023/01/24 02:22:14;;;;;;;15.97;10.33;;;;;;;;;;5022893;28;20232;-53
2023/01/24 02:24:43;;;;;;;13.00;9.17;;;;;;;;;;5024549;28;21122;-52
2023/01/24 02:27:11;;;;;;;12.77;9.63;;;;;;;;;;5024696;28;20701;-53
2023/01/24 02:29:37;;;;;;;11.87;8.83;;;;;;;;;;5023561;28;20241;-53
2023/01/24 02:32:06;;;;;;;11.80;8.87;;;;;;;;;;5023881;28;20249;-51
2023/01/24 02:34:33;;;;;;;11.83;9.20;;;;;;;;;;5024801;28;20667;-52
2023/01/24 02:37:00;;;;;;;11.87;9.00;;;;;;;;;;5023811;28;20319;-53
2023/01/24 02:39:28;;;;;;;11.27;8.27;;;;;;;;;;5021152;28;20246;-52
2023/01/24 02:41:56;;;;;;;14.77;9.10;;;;;;;;;;5019475;28;20259;-52
2023/01/24 02:44:30;;;;;;;12.50;7.73;;;;;;;;;;5025257;28;20741;-51
2023/01/24 02:46:56;;;;;;;10.47;8.27;;;;;;;;;;5023387;28;20232;-56
2023/01/24 02:49:23;;;;;;;8.97;7.87;;;;;;;;;;5024973;28;20238;-54
2023/01/24 02:54:33;;;;;;;11.73;7.20;;;;;;;;;;5025415;28;20297;-52
2023/01/24 02:59:44;;;;;;;7.33;6.60;;;;;;;;;;5020572;28;20242;-52
2023/01/24 03:02:11;;;;;;;7.17;5.77;;;;;;;;;;5024814;28;20234;-53
2023/01/24 03:04:37;;;;;;;7.33;6.60;;;;;;;;;;5022680;28;20237;-54
2023/01/24 03:07:03;;;;;;;8.43;7.03;;;;;;;;;;5019351;28;20293;-53
2023/01/24 03:09:34;;;;;;;9.00;7.13;;;;;;;;;;5022564;28;20232;-52
2023/01/24 03:36:38;;;;;;;7.40;6.57;;;;;;;;;;5024560;28;20288;-52
2023/01/24 03:41:48;;;;;;;9.60;8.60;;;;;;;;;;5021819;28;20237;-52
2023/01/24 03:44:14;;;;;;;7.17;6.23;;;;;;;;;;5020649;28;20236;-52
2023/01/24 03:46:42;;;;;;;9.60;6.80;;;;;;;;;;5020499;28;20234;-52
2023/01/24 03:49:08;;;;;;;9.07;6.77;;;;;;;;;;5019756;28;20254;-53
2023/01/24 03:54:18;;;;;;;7.73;6.20;;;;;;;;;;5042109;28;20242;-53
2023/01/24 03:56:45;;;;;;;6.60;5.90;;;;;;;;;;5024969;28;20234;-53
2023/01/24 03:59:11;;;;;;;7.53;5.97;;;;;;;;;;5031101;28;20264;-52
2023/01/24 04:01:38;;;;;;;6.70;6.00;;;;;;;;;;5027381;28;20254;-53
2023/01/24 04:04:05;;;;;;;8.17;7.03;;;;;;;;;;5021101;28;20323;-52
2023/01/24 04:06:32;;;;;;;8.57;7.03;;;;;;;;;;5020991;28;20238;-52
2023/01/24 04:08:59;;;;;;;9.07;7.90;;;;;;;;;;5023804;28;20235;-52
2023/01/24 04:11:25;;;;;;;9.07;6.30;;;;;;;;;;5017868;28;20316;-52
2023/01/24 04:13:52;;;;;;;9.43;7.00;;;;;;;;;;5035520;28;20257;-52
2023/01/24 04:16:18;;;;;;;8.47;6.53;;;;;;;;;;5027437;28;20320;-54
2023/01/24 04:18:44;;;;;;;9.23;7.07;;;;;;;;;;5033050;28;20255;-52
2023/01/24 04:21:12;;;;;;;7.60;6.90;;;;;;;;;;5038586;28;20271;-53
2023/01/24 04:23:39;;;;;;;8.97;6.37;;;;;;;;;;5026630;28;20232;-53
2023/01/24 04:26:05;;;;;;;10.13;7.90;;;;;;;;;;5029625;28;20243;-52
2023/01/24 04:28:32;;;;;;;8.87;7.07;;;;;;;;;;5028732;28;20583;-52
2023/01/24 04:30:59;;;;;;;9.00;7.10;;;;;;;;;;5029393;28;20318;-53
2023/01/24 04:33:25;;;;;;;6.93;6.23;;;;;;;;;;5023547;28;20224;-52
2023/01/24 04:35:52;;;;;;;8.87;7.07;;;;;;;;;;5023238;28;20231;-53
2023/01/24 04:38:19;;;;;;;7.87;6.53;;;;;;;;;;5033479;28;20247;-53
2023/01/24 04:40:46;;;;;;;7.17;6.47;;;;;;;;;;5033418;28;20235;-53
2023/01/24 04:43:12;;;;;;;8.17;7.40;;;;;;;;;;5036603;28;20320;-53
2023/01/24 04:45:38;;;;;;;6.47;5.87;;;;;;;;;;5040336;28;20290;-57
2023/01/24 04:48:05;;;;;;;7.07;6.37;;;;;;;;;;5033803;28;20299;-53
2023/01/24 04:50:31;;;;;;;8.23;7.27;;;;;;;;;;5033937;28;20302;-55
2023/01/24 04:52:58;;;;;;;8.77;7.43;;;;;;;;;;5030444;28;20322;-52
2023/01/24 04:55:26;;;;;;;8.20;6.57;;;;;;;;;;5024053;28;20239;-53
2023/01/24 04:57:52;;;;;;;7.63;6.93;;;;;;;;;;5027632;28;20243;-53
2023/01/24 05:00:18;;;;;;;7.77;6.97;;;;;;;;;;5031719;28;20225;-53
2023/01/24 05:02:45;;;;;;;7.60;6.40;;;;;;;;;;5021784;28;20240;-52
2023/01/24 05:05:11;;;;;;;8.30;7.17;;;;;;;;;;5020728;28;20329;-52
2023/01/24 05:07:37;;;;;;;9.30;6.87;;;;;;;;;;5016824;28;20239;-52
2023/01/24 05:10:04;;;;;;;7.83;6.90;;;;;;;;;;5027702;28;20238;-51
2023/01/24 05:12:32;;;;;;;8.20;6.40;;;;;;;;;;5027096;28;20335;-53
2023/01/24 05:14:58;;;;;;;8.50;7.03;;;;;;;;;;5023730;28;20238;-51
2023/01/24 05:17:24;;;;;;;9.20;6.93;;;;;;;;;;5027749;28;20244;-53
2023/01/24 05:19:51;;;;;;;8.97;7.50;;;;;;;;;;5025195;28;20299;-53
2023/01/24 05:22:17;;;;;;;8.33;7.07;;;;;;;;;;5022272;28;20250;-52
2023/01/24 05:24:43;;;;;;;7.23;6.53;;;;;;;;;;5019347;28;20237;-52
2023/01/24 05:27:10;;;;;;;9.27;6.73;;;;;;;;;;5020746;28;20240;-52
2023/01/24 05:29:38;;;;;;;7.73;6.33;;;;;;;;;;5022027;28;20671;-52
2023/01/24 05:32:04;;;;;;;7.07;5.93;;;;;;;;;;5022135;28;20881;-52
2023/01/24 05:34:31;;;;;;;8.57;7.47;;;;;;;;;;5021648;28;20717;-53
2023/01/24 05:36:57;;;;;;;10.40;7.17;;;;;;;;;;5020615;28;20234;-53
2023/01/24 05:39:23;;;;;;;7.17;6.20;;;;;;;;;;5021777;28;20319;-53
2023/01/24 05:41:50;;;;;;;8.37;7.00;;;;;;;;;;5022401;28;20330;-51
2023/01/24 05:44:16;;;;;;;8.13;7.20;;;;;;;;;;5022077;28;20335;-54
2023/01/24 05:46:44;;;;;;;9.70;7.57;;;;;;;;;;5022891;28;20226;-52
2023/01/24 05:49:10;;;;;;;8.70;6.83;;;;;;;;;;5029382;28;20254;-55
2023/01/24 05:51:37;;;;;;;9.67;7.37;;;;;;;;;;5023706;28;20228;-53
2023/01/24 05:54:03;;;;;;;8.47;6.83;;;;;;;;;;5027027;28;20241;-53
2023/01/24 05:56:30;;;;;;;7.57;6.87;;;;;;;;;;5023914;28;20228;-53
2023/01/24 05:58:56;;;;;;;10.00;7.10;;;;;;;;;;5023747;28;20326;-53
2023/01/24 06:01:23;;;;;;;7.97;7.17;;;;;;;;;;5028850;28;20270;-53
2023/01/24 06:03:51;;;;;;;9.93;7.63;;;;;;;;;;5037940;28;20242;-53
2023/01/24 06:06:19;;;;;;;8.40;7.10;;;;;;;;;;5031372;28;20230;-53
2023/01/24 06:08:45;;;;;;;8.90;7.30;;;;;;;;;;5032133;28;20239;-54
2023/01/24 06:11:13;;;;;;;8.63;6.07;;;;;;;;;;5034094;28;20246;-51
2023/01/24 06:13:39;;;;;;;8.77;7.17;;;;;;;;;;5025579;28;20232;-53
2023/01/24 06:16:06;;;;;;;10.67;6.73;;;;;;;;;;5023556;28;20246;-59
2023/01/24 06:18:33;;;;;;;7.70;6.90;;;;;;;;;;5024516;28;20248;-54
2023/01/24 06:21:04;;;;;;;8.97;7.43;;;;;;;;;;5021482;28;20730;-52
2023/01/24 06:23:31;;;;;;;10.43;7.17;;;;;;;;;;5023792;28;20231;-52
2023/01/24 06:25:57;;;;;;;9.30;7.37;;;;;;;;;;5023359;28;20314;-52
2023/01/24 06:28:24;;;;;;;9.70;7.57;;;;;;;;;;5024202;28;20240;-52
2023/01/24 06:30:56;;;;;;;12.00;8.40;;;;;;;;;;5020712;28;20231;-53
2023/01/24 06:33:26;;;;;;;14.83;8.33;;;;;;;;;;5024491;28;20232;-53
2023/01/24 06:36:03;;;;;;;9.73;8.10;;;;;;;;;;5019545;28;20318;-53
2023/01/24 06:38:31;;;;;;;10.93;8.27;;;;;;;;;;5019485;28;20239;-53
2023/01/24 06:40:59;;;;;;;11.33;9.27;;;;;;;;;;5016698;28;20760;-52
2023/01/24 06:43:26;;;;;;;13.03;8.43;;;;;;;;;;5021187;28;20236;-53
2023/01/24 06:45:52;;;;;;;10.20;7.27;;;;;;;;;;5024612;28;20310;-53
2023/01/24 06:48:19;;;;;;;14.33;9.03;;;;;;;;;;5019686;28;20678;-54
2023/01/24 06:50:46;;;;;;;14.43;9.27;;;;;;;;;;5026042;28;20231;-51
2023/01/24 06:53:14;;;;;;;13.53;9.50;;;;;;;;;;5021944;28;20261;-54
2023/01/24 06:55:44;;;;;;;12.07;9.57;;;;;;;;;;5025755;28;20236;-52
2023/01/24 06:58:11;;;;;;;13.13;9.67;;;;;;;;;;5023728;28;20615;-53
2023/01/24 07:00:37;;;;;;;15.03;9.87;;;;;;;;;;5020893;28;20235;-53
2023/01/24 07:03:06;;;;;;;13.17;8.93;;;;;;;;;;5023912;28;20253;-54
2023/01/24 07:05:32;;;;;;;14.00;9.47;;;;;;;;;;5022656;28;20809;-53
2023/01/24 07:07:59;;;;;;;12.37;9.10;;;;;;;;;;5025192;28;20227;-53
2023/01/24 07:10:26;;;;;;;11.53;8.93;;;;;;;;;;5021682;28;20254;-52
2023/01/24 07:12:53;;;;;;;14.40;9.77;;;;;;;;;;5024710;28;20231;-54
2023/01/24 07:15:20;;;;;;;14.97;9.87;;;;;;;;;;5023031;28;20713;-53
2023/01/24 07:17:46;;;;;;;18.40;11.87;;;;;;;;;;5012984;28;20239;-53
2023/01/24 07:20:13;;;;;;;14.87;10.07;;;;;;;;;;5021827;28;20227;-53
2023/01/24 07:22:40;;;;;;;15.63;8.70;;;;;;;;;;5024633;28;20598;-54
2023/01/24 07:25:11;;;;;;;11.57;8.90;;;;;;;;;;5021658;28;20315;-52
2023/01/24 07:27:38;;;;;;;11.20;9.17;;;;;;;;;;5021012;28;20919;-52
2023/01/24 07:30:06;;;;;;;16.50;11.00;;;;;;;;;;5019443;28;20235;-52
2023/01/24 07:32:33;;;;;;;17.23;8.90;;;;;;;;;;5018582;28;20254;-52
2023/01/24 07:34:59;;;;;;;14.67;9.80;;;;;;;;;;5018075;28;20340;-54
2023/01/24 07:37:25;;;;;;;17.37;8.87;;;;;;;;;;5018296;28;20236;-55
2023/01/24 07:39:52;;;;;;;15.83;10.53;;;;;;;;;;5013647;28;20234;-53
2023/01/24 07:42:18;;;;;;;12.90;9.37;;;;;;;;;;5016953;28;20715;-53
2023/01/24 07:44:45;;;;;;;13.03;8.27;;;;;;;;;;5018240;28;20315;-53
2023/01/24 07:47:12;;;;;;;10.63;8.97;;;;;;;;;;5017162;28;20251;-51
2023/01/24 07:49:39;;;;;;;12.57;8.40;;;;;;;;;;5022698;28;20231;-52
2023/01/24 07:52:05;;;;;;;13.53;8.97;;;;;;;;;;5023225;28;20247;-52
2023/01/24 07:54:31;;;;;;;12.10;8.60;;;;;;;;;;5023035;28;20231;-52
2023/01/24 07:56:58;;;;;;;10.60;8.13;;;;;;;;;;5017131;28;20805;-54
2023/01/24 07:59:24;;;;;;;10.83;8.47;;;;;;;;;;5021648;28;20233;-53
2023/01/24 08:01:51;;;;;;;11.40;8.17;;;;;;;;;;5011626;28;20236;-53
2023/01/24 08:04:18;;;;;;;10.67;7.73;;;;;;;;;;5019795;28;20689;-54
2023/01/24 08:09:26;;;;;;;8.83;7.23;;;;;;;;;;5011628;28;20278;-52
2023/01/24 08:11:52;;;;;;;11.70;7.20;;;;;;;;;;5017630;28;20619;-55
2023/01/24 08:14:19;;;;;;;9.90;7.37;;;;;;;;;;4999808;28;20263;-52
2023/01/24 08:16:45;;;;;;;12.20;8.33;;;;;;;;;;4994191;28;20239;-54
2023/01/24 08:19:12;;;;;;;12.67;8.07;;;;;;;;;;5011083;28;20306;-52
2023/01/24 08:21:39;;;;;;;11.90;8.90;;;;;;;;;;5012086;28;20230;-53
2023/01/24 08:24:06;;;;;;;13.50;9.27;;;;;;;;;;5023633;28;20238;-50
2023/01/24 08:26:32;;;;;;;16.07;9.50;;;;;;;;;;5018560;28;20309;-53
2023/01/24 08:28:59;;;;;;;14.70;8.03;;;;;;;;;;5023011;28;20360;-54
2023/01/24 08:31:26;;;;;;;9.90;7.37;;;;;;;;;;5020569;28;20236;-51
2023/01/24 08:33:53;;;;;;;13.87;8.53;;;;;;;;;;5020493;28;20235;-52
2023/01/24 08:36:20;;;;;;;15.87;8.90;;;;;;;;;;5025753;28;20234;-52
2023/01/24 08:38:47;;;;;;;10.47;8.13;;;;;;;;;;5029485;28;20236;-53
2023/01/24 08:41:14;;;;;;;14.53;8.47;;;;;;;;;;5027383;28;20240;-53
2023/01/24 08:43:40;;;;;;;11.33;8.37;;;;;;;;;;5021987;28;20310;-56
2023/01/24 08:46:06;;;;;;;11.00;8.57;;;;;;;;;;5029886;28;20295;-52
2023/01/24 08:48:33;;;;;;;13.53;8.53;;;;;;;;;;5017921;28;20315;-53
2023/01/24 08:50:59;;;;;;;17.90;9.73;;;;;;;;;;5017648;28;20327;-53
2023/01/24 08:53:25;;;;;;;12.70;9.77;;;;;;;;;;5022678;28;20816;-53
2023/01/24 08:55:53;;;;;;;17.17;10.23;;;;;;;;;;5022564;28;20256;-52
2023/01/24 08:58:20;;;;;;;13.30;9.37;;;;;;;;;;5022822;28;20321;-53
2023/01/24 09:00:47;;;;;;;17.57;9.90;;;;;;;;;;5021178;28;20234;-54
2023/01/24 09:03:15;;;;;;;18.07;9.37;;;;;;;;;;5021335;28;21077;-53
2023/01/24 09:05:42;;;;;;;15.20;9.87;;;;;;;;;;5021616;28;20239;-52
2023/01/24 09:08:08;;;;;;;13.87;9.83;;;;;;;;;;5019920;28;20354;-52
2023/01/24 09:10:35;;;;;;;14.63;9.43;;;;;;;;;;5020509;28;20784;-53
2023/01/24 09:13:04;;;;;;;17.33;10.57;;;;;;;;;;5024614;28;20803;-53
2023/01/24 09:15:30;;;;;;;17.47;10.67;;;;;;;;;;5022451;28;20231;-54
2023/01/24 09:18:00;;;;;;;15.70;9.77;;;;;;;;;;5025119;28;20243;-53
2023/01/24 09:20:27;;;;;;;19.67;10.90;;;;;;;;;;5018735;28;20285;-53
2023/01/24 09:22:53;;;;;;;19.43;10.93;;;;;;;;;;5025496;28;20235;-52
2023/01/24 09:25:20;;;;;;;18.03;10.23;;;;;;;;;;5023995;28;20326;-54
2023/01/24 09:27:52;;;;;;;19.97;11.73;;;;;;;;;;5028241;28;20239;-55
2023/01/24 09:30:21;;;;;;;15.97;10.73;;;;;;;;;;5023274;28;20267;-54
2023/01/24 09:32:48;;;;;;;24.87;11.77;;;;;;;;;;5014492;28;20314;-53
2023/01/24 09:35:15;;;;;;;21.93;10.97;;;;;;;;;;5019004;28;20702;-52
2023/01/24 09:37:42;;;;;;;22.63;11.70;;;;;;;;;;5024459;28;20511;-52
2023/01/24 09:40:17;;;;;;;24.30;11.97;;;;;;;;;;5025438;28;20236;-52
2023/01/24 09:42:46;;;;;;;22.37;12.57;;;;;;;;;;5005638;28;20292;-53
2023/01/24 09:45:17;;;;;;;23.73;12.70;;;;;;;;;;5020452;28;20235;-52
2023/01/24 09:47:46;;;;;;;25.57;11.93;;;;;;;;;;5025111;28;20694;-53
2023/01/24 09:50:16;;;;;;;23.10;12.80;;;;;;;;;;5021447;28;20326;-53
2023/01/24 09:52:44;;;;;;;25.47;12.40;;;;;;;;;;5017518;28;20255;-53
2023/01/24 09:55:14;;;;;;;31.33;13.83;;;;;;;;;;5018376;28;20228;-53
2023/01/24 09:57:46;;;;;;;25.57;12.50;;;;;;;;;;5029423;28;20234;-53
2023/01/24 10:00:17;;;;;;;24.03;11.83;;;;;;;;;;5015444;28;20240;-53
2023/01/24 10:02:45;;;;;;;21.13;12.50;;;;;;;;;;5023273;28;20231;-53
2023/01/24 10:05:13;;;;;;;23.87;12.17;;;;;;;;;;5013924;28;20318;-52
2023/01/24 10:07:56;;;;;;;29.60;14.20;;;;;;;;;;5032486;28;20614;-52
2023/01/24 10:10:30;;;;;;;28.03;15.13;;;;;;;;;;5017407;28;20231;-54
2023/01/24 10:13:01;;;;;;;19.87;13.03;;;;;;;;;;5030473;28;20231;-53
2023/01/24 10:15:35;;;;;;;28.70;14.07;;;;;;;;;;5022389;28;20703;-52
2023/01/24 10:18:22;;;;;;;27.43;13.97;;;;;;;;;;5023638;28;20858;-52
2023/01/24 10:21:05;;;;;;;27.67;15.23;;;;;;;;;;5026496;28;20224;-52
2023/01/24 10:23:34;;;;;;;29.87;15.37;;;;;;;;;;5027816;28;20317;-52
2023/01/24 10:26:04;;;;;;;24.93;14.83;;;;;;;;;;5021466;28;20255;-51
2023/01/24 10:28:34;;;;;;;29.30;13.60;;;;;;;;;;5031686;28;20325;-53
2023/01/24 10:31:04;;;;;;;35.13;15.47;;;;;;;;;;5020401;28;20324;-52
2023/01/24 10:33:35;;;;;;;31.90;16.63;;;;;;;;;;5022723;28;20231;-54
2023/01/24 10:36:04;;;;;;;34.30;16.77;;;;;;;;;;5025850;28;20262;-53
2023/01/24 10:38:30;;;;;;;30.83;16.03;;;;;;;;;;5021815;28;20323;-53
2023/01/24 10:41:15;;;;;;;32.10;15.13;;;;;;;;;;5022460;28;20237;-54
2023/01/24 10:43:42;;;;;;;29.43;15.77;;;;;;;;;;5029341;28;20238;-52
2023/01/24 10:46:14;;;;;;;39.67;16.30;;;;;;;;;;5019389;28;20238;-54
2023/01/24 10:48:43;;;;;;;32.10;16.83;;;;;;;;;;5018702;28;20240;-53
2023/01/24 10:51:11;;;;;;;43.43;19.27;;;;;;;;;;5017146;28;20236;-53
2023/01/24 10:53:38;;;;;;;33.77;16.90;;;;;;;;;;5023643;28;20319;-54
2023/01/24 10:56:04;;;;;;;33.40;17.27;;;;;;;;;;5028081;28;20720;-51
2023/01/24 10:58:33;;;;;;;35.20;16.10;;;;;;;;;;5030738;28;20237;-53
2023/01/24 11:01:00;;;;;;;37.87;17.43;;;;;;;;;;5025877;28;20782;-53
2023/01/24 11:03:28;;;;;;;29.43;16.67;;;;;;;;;;5029601;28;20237;-51
2023/01/24 11:05:57;;;;;;;36.73;17.00;;;;;;;;;;5014650;28;20247;-53
2023/01/24 11:08:24;;;;;;;35.23;16.20;;;;;;;;;;5021490;28;20240;-54
2023/01/24 11:10:54;;;;;;;45.90;19.73;;;;;;;;;;5026816;28;20231;-53
2023/01/24 11:13:34;;;;;;;41.83;17.40;;;;;;;;;;5023144;28;20267;-53
2023/01/24 11:16:02;;;;;;;39.23;17.57;;;;;;;;;;5029281;28;20246;-52
2023/01/24 11:18:29;;;;;;;38.07;17.73;;;;;;;;;;5023117;28;20243;-52
2023/01/24 11:21:10;;;;;;;31.13;17.50;;;;;;;;;;5032010;28;20230;-52
2023/01/24 11:23:37;;;;;;;32.87;16.37;;;;;;;;;;5029344;28;20242;-53
2023/01/24 11:26:04;;;;;;;44.03;19.53;;;;;;;;;;5026627;28;20332;-52
2023/01/24 11:28:32;;;;;;;37.73;19.87;;;;;;;;;;5028017;28;20338;-53
2023/01/24 11:31:01;;;;;;;39.60;18.83;;;;;;;;;;5023111;28;20229;-53
2023/01/24 11:33:34;;;;;;;38.27;18.27;;;;;;;;;;5037434;28;20242;-53
2023/01/24 11:36:03;;;;;;;42.00;18.77;;;;;;;;;;5030577;28;20236;-51
2023/01/24 11:38:44;;;;;;;41.60;19.60;;;;;;;;;;5019549;28;20262;-51
2023/01/24 11:41:11;;;;;;;43.93;18.90;;;;;;;;;;5020177;28;20454;-52
2023/01/24 11:43:52;;;;;;;37.13;17.80;;;;;;;;;;5020723;28;20247;-53
2023/01/24 11:46:28;;;;;;;38.10;18.97;;;;;;;;;;5016719;28;20228;-52
2023/01/24 11:48:57;;;;;;;33.57;18.50;;;;;;;;;;5020547;28;20746;-52
2023/01/24 11:51:30;;;;;;;37.50;18.83;;;;;;;;;;5024099;28;20278;-56
2023/01/24 11:54:07;;;;;;;40.17;18.57;;;;;;;;;;5018730;28;20330;-53
2023/01/24 11:56:37;;;;;;;41.67;19.30;;;;;;;;;;5022442;28;20231;-53
2023/01/24 11:59:14;;;;;;;39.17;16.93;;;;;;;;;;5025533;28;20244;-53
2023/01/24 12:01:45;;;;;;;34.00;17.37;;;;;;;;;;5015907;28;20234;-52
2023/01/24 12:04:19;;;;;;;35.77;16.53;;;;;;;;;;5009554;28;20750;-52
2023/01/24 12:06:50;;;;;;;36.10;18.83;;;;;;;;;;5015710;28;20229;-52
2023/01/24 12:09:20;;;;;;;34.93;18.13;;;;;;;;;;5024815;28;20230;-53
2023/01/24 12:11:49;;;;;;;36.53;18.17;;;;;;;;;;5012722;28;20243;-52
2023/01/24 12:14:28;;;;;;;40.93;17.90;;;;;;;;;;5010313;28;20245;-53
2023/01/24 12:16:59;;;;;;;38.03;17.90;;;;;;;;;;5021518;28;20251;-52
2023/01/24 12:19:39;;;;;;;34.40;17.67;;;;;;;;;;5019913;28;20237;-52
2023/01/24 12:22:10;;;;;;;45.27;18.47;;;;;;;;;;5024089;28;20327;-52
2023/01/24 12:24:38;;;;;;;36.70;16.90;;;;;;;;;;5016438;28;20247;-53
2023/01/24 12:27:07;;;;;;;33.93;17.47;;;;;;;;;;5032518;28;20246;-53
2023/01/24 12:29:36;;;;;;;34.73;17.67;;;;;;;;;;5027378;28;20230;-53
2023/01/24 12:32:05;;;;;;;39.73;19.20;;;;;;;;;;5025203;28;20239;-52
2023/01/24 12:34:40;;;;;;;46.20;19.07;;;;;;;;;;5022879;28;20765;-52
2023/01/24 12:37:11;;;;;;;35.73;17.43;;;;;;;;;;5016138;28;20247;-52
2023/01/24 12:39:42;;;;;;;42.63;20.50;;;;;;;;;;5024515;28;20263;-54
2023/01/24 12:42:14;;;;;;;36.57;17.00;;;;;;;;;;5027074;28;20239;-52
2023/01/24 12:44:43;;;;;;;36.60;18.00;;;;;;;;;;5023980;28;20219;-52
2023/01/24 12:47:17;;;;;;;33.83;16.83;;;;;;;;;;5023217;28;20267;-52
2023/01/24 12:49:47;;;;;;;31.10;16.23;;;;;;;;;;5016023;28;20233;-51
2023/01/24 12:52:20;;;;;;;38.80;15.80;;;;;;;;;;5018373;28;20242;-54
2023/01/24 12:54:49;;;;;;;45.90;20.13;;;;;;;;;;5017111;28;20315;-54
2023/01/24 12:57:19;;;;;;;35.23;17.47;;;;;;;;;;5036657;28;20235;-53
2023/01/24 12:59:46;;;;;;;32.70;17.73;;;;;;;;;;5037612;28;20259;-52
2023/01/24 13:02:30;;;;;;;41.00;17.73;;;;;;;;;;5045904;28;20240;-52
2023/01/24 13:05:02;;;;;;;33.50;16.93;;;;;;;;;;5028406;28;20246;-54
2023/01/24 13:07:33;;;;;;;36.20;18.63;;;;;;;;;;5037666;28;20293;-53
2023/01/24 13:10:06;;;;;;;34.20;16.70;;;;;;;;;;5038108;28;20330;-52
2023/01/24 13:12:32;;;;;;;40.93;19.27;;;;;;;;;;5020837;28;20231;-54
2023/01/24 13:15:01;;;;;;;43.60;17.80;;;;;;;;;;5035200;28;20224;-52
2023/01/24 13:17:43;;;;;;;38.63;17.23;;;;;;;;;;5033617;28;20242;-52
2023/01/24 13:20:24;;;;;;;32.43;14.53;;;;;;;;;;5039063;28;20893;-55
2023/01/24 13:22:55;;;;;;;33.37;17.50;;;;;;;;;;5036157;28;20240;-51
2023/01/24 13:25:35;;;;;;;37.33;17.90;;;;;;;;;;5047330;28;20601;-56
2023/01/24 13:28:07;;;;;;;31.97;16.53;;;;;;;;;;5032549;28;20617;-53
2023/01/24 13:30:38;;;;;;;35.20;17.70;;;;;;;;;;5036280;28;20294;-56
2023/01/24 13:33:05;;;;;;;41.47;18.73;;;;;;;;;;5035048;28;20236;-55
2023/01/24 13:35:32;;;;;;;34.80;17.37;;;;;;;;;;5027332;28;20356;-53
2023/01/24 13:38:02;;;;;;;39.70;18.00;;;;;;;;;;5038711;28;20331;-52
2023/01/24 13:40:34;;;;;;;37.93;17.33;;;;;;;;;;5032832;28;20291;-53
2023/01/24 13:43:01;;;;;;;40.67;18.83;;;;;;;;;;5028017;28;20236;-53
2023/01/24 13:46:00;;;;;;;41.70;18.07;;;;;;;;;;5028350;28;20243;-52
2023/01/24 13:49:00;;;;;;;36.63;17.83;;;;;;;;;;5016420;28;20604;-53
2023/01/24 13:51:44;;;;;;;50.83;18.80;;;;;;;;;;4965639;28;20726;-55
2023/01/24 13:54:18;;;;;;;28.53;15.90;;;;;;;;;;4960094;28;20642;-53
2023/01/24 13:56:59;;;;;;;34.40;16.30;;;;;;;;;;5003427;28;20709;-53
2023/01/24 13:59:27;;;;;;;24.80;15.70;;;;;;;;;;5033787;28;20230;-54
2023/01/24 14:01:53;;;;;;;33.17;17.47;;;;;;;;;;5031901;28;20314;-52
2023/01/24 14:04:35;;;;;;;40.47;19.47;;;;;;;;;;5019754;28;20740;-51
2023/01/24 14:07:01;;;;;;;38.37;18.10;;;;;;;;;;5027002;28;20231;-52
2023/01/24 14:09:28;;;;;;;26.57;15.00;;;;;;;;;;5029197;28;20267;-52
2023/01/24 14:11:58;;;;;;;34.33;16.50;;;;;;;;;;5022592;28;20243;-53
2023/01/24 14:14:48;;;;;;;31.23;16.37;;;;;;;;;;5025581;28;20661;-53
2023/01/24 14:17:32;;;;;;;34.60;19.17;;;;;;;;;;4993381;28;20242;-52
2023/01/24 14:20:00;;;;;;;27.97;15.80;;;;;;;;;;5008614;28;20234;-53
2023/01/24 14:22:37;;;;;;;28.77;15.63;;;;;;;;;;5022620;28;20247;-52
2023/01/24 14:25:05;;;;;;;34.57;15.70;;;;;;;;;;5018962;28;20227;-52
2023/01/24 14:27:36;;;;;;;29.67;17.13;;;;;;;;;;5016286;28;20242;-51
2023/01/24 14:30:16;;;;;;;31.87;17.23;;;;;;;;;;5030187;28;20231;-52
2023/01/24 14:32:47;;;;;;;34.77;17.53;;;;;;;;;;5024493;28;20226;-52
2023/01/24 14:35:19;;;;;;;32.57;16.63;;;;;;;;;;5020798;28;20230;-53
2023/01/24 14:37:45;;;;;;;27.97;15.87;;;;;;;;;;5013794;28;20240;-52
2023/01/24 14:40:13;;;;;;;33.63;16.53;;;;;;;;;;5024773;28;20232;-52
2023/01/24 14:42:39;;;;;;;31.17;15.73;;;;;;;;;;5024626;28;20309;-53
2023/01/24 14:45:12;;;;;;;30.60;15.20;;;;;;;;;;5025192;28;20243;-53
2023/01/24 14:47:39;;;;;;;29.83;15.27;;;;;;;;;;5021709;28;20610;-51
2023/01/24 14:50:20;;;;;;;30.50;15.77;;;;;;;;;;5031009;28;20236;-53
2023/01/24 14:52:47;;;;;;;27.83;15.57;;;;;;;;;;5023136;28;20726;-53
2023/01/24 14:55:27;;;;;;;27.23;15.07;;;;;;;;;;5025665;28;20245;-53
2023/01/24 14:57:54;;;;;;;39.23;17.93;;;;;;;;;;5023777;28;20240;-53
2023/01/24 15:00:22;;;;;;;27.33;14.67;;;;;;;;;;5025607;28;20319;-52
2023/01/24 15:02:52;;;;;;;30.10;15.40;;;;;;;;;;5024252;28;20236;-57
2023/01/24 15:05:27;;;;;;;37.23;17.17;;;;;;;;;;5026118;28;20330;-54
2023/01/24 15:07:53;;;;;;;26.83;15.50;;;;;;;;;;5024769;28;20751;-57
2023/01/24 15:10:22;;;;;;;39.90;17.03;;;;;;;;;;5024948;28;20261;-52
2023/01/24 15:12:52;;;;;;;33.10;15.50;;;;;;;;;;5022378;28;20236;-52
2023/01/24 15:15:19;;;;;;;36.17;15.20;;;;;;;;;;5030571;28;20912;-51
2023/01/24 15:17:46;;;;;;;31.20;14.93;;;;;;;;;;5027898;28;20239;-52